sensor_id;sensor_type;location;lat;lon;timestamp;P1;durP1;ratioP1;P2;durP2;ratioP2
20758;SDS011;10539;53.686;9.158;2023-02-15T00:00:21;193.73;;;26.30;;
20758;SDS011;10539;53.686;9.158;2023-02-15T00:02:46;277.10;;;28.53;;
20758;SDS011;10539;53.686;9.158;2023-02-15T00:05:12;330.00;;;29.47;;
20758;SDS011;10539;53.686;9.158;2023-02-15T00:07:38;335.80;;;27.97;;
20758;SDS011;10539;53.686;9.158;2023-02-15T00:10:04;355.43;;;26.70;;
20758;SDS011;10539;53.686;9.158;2023-02-15T00:12:31;245.57;;;24.07;;
20758;SDS011;10539;53.686;9.158;2023-02-15T00:14:56;233.23;;;24.37;;
20758;SDS011;10539;53.686;9.158;2023-02-15T00:17:22;281.13;;;23.70;;
20758;SDS011;10539;53.686;9.158;2023-02-15T00:19:48;296.93;;;24.30;;
20758;SDS011;10539;53.686;9.158;2023-02-15T00:22:14;162.10;;;23.67;;
20758;SDS011;10539;53.686;9.158;2023-02-15T00:24:40;215.77;;;24.63;;
20758;SDS011;10539;53.686;9.158;2023-02-15T00:27:06;266.27;;;27.67;;
20758;SDS011;10539;53.686;9.158;2023-02-15T00:29:31;290.13;;;27.93;;
20758;SDS011;10539;53.686;9.158;2023-02-15T00:31:57;270.03;;;25.43;;
20758;SDS011;10539;53.686;9.158;2023-02-15T00:34:24;290.53;;;26.43;;
20758;SDS011;10539;53.686;9.158;2023-02-15T00:36:50;232.50;;;23.93;;
20758;SDS011;10539;53.686;9.158;2023-02-15T00:39:17;259.33;;;23.37;;
20758;SDS011;10539;53.686;9.158;2023-02-15T00:41:43;222.43;;;22.03;;
20758;SDS011;10539;53.686;9.158;2023-02-15T00:44:10;186.03;;;20.67;;
20758;SDS011;10539;53.686;9.158;2023-02-15T00:46:36;152.13;;;19.80;;
20758;SDS011;10539;53.686;9.158;2023-02-15T00:49:02;168.57;;;21.13;;
20758;SDS011;10539;53.686;9.158;2023-02-15T00:51:28;131.03;;;19.83;;
20758;SDS011;10539;53.686;9.158;2023-02-15T00:53:54;206.50;;;19.97;;
20758;SDS011;10539;53.686;9.158;2023-02-15T00:56:20;241.90;;;19.47;;
20758;SDS011;10539;53.686;9.158;2023-02-15T00:58:46;238.27;;;19.97;;
20758;SDS011;10539;53.686;9.158;2023-02-15T01:01:13;212.50;;;18.20;;
20758;SDS011;10539;53.686;9.158;2023-02-15T01:03:41;219.03;;;16.17;;
20758;SDS011;10539;53.686;9.158;2023-02-15T01:06:08;191.43;;;14.93;;
20758;SDS011;10539;53.686;9.158;2023-02-15T01:08:34;82.40;;;12.10;;
20758;SDS011;10539;53.686;9.158;2023-02-15T01:11:06;143.50;;;12.67;;
20758;SDS011;10539;53.686;9.158;2023-02-15T01:13:34;107.90;;;12.00;;
20758;SDS011;10539;53.686;9.158;2023-02-15T01:16:00;114.80;;;12.40;;
20758;SDS011;10539;53.686;9.158;2023-02-15T01:18:26;131.03;;;11.70;;
20758;SDS011;10539;53.686;9.158;2023-02-15T01:20:52;179.80;;;12.43;;
20758;SDS011;10539;53.686;9.158;2023-02-15T01:23:18;74.17;;;9.80;;
20758;SDS011;10539;53.686;9.158;2023-02-15T01:25:44;145.07;;;12.10;;
20758;SDS011;10539;53.686;9.158;2023-02-15T01:28:10;128.73;;;12.40;;
20758;SDS011;10539;53.686;9.158;2023-02-15T01:30:36;167.63;;;12.50;;
20758;SDS011;10539;53.686;9.158;2023-02-15T01:33:02;159.97;;;13.20;;
20758;SDS011;10539;53.686;9.158;2023-02-15T01:35:28;116.10;;;11.67;;
20758;SDS011;10539;53.686;9.158;2023-02-15T01:37:54;112.67;;;11.33;;
20758;SDS011;10539;53.686;9.158;2023-02-15T01:40:20;76.23;;;10.23;;
20758;SDS011;10539;53.686;9.158;2023-02-15T01:42:49;80.00;;;9.30;;
20758;SDS011;10539;53.686;9.158;2023-02-15T01:45:24;178.63;;;12.50;;
20758;SDS011;10539;53.686;9.158;2023-02-15T01:48:02;168.33;;;12.27;;
20758;SDS011;10539;53.686;9.158;2023-02-15T01:50:57;177.57;;;12.27;;
20758;SDS011;10539;53.686;9.158;2023-02-15T01:53:33;185.90;;;13.03;;
20758;SDS011;10539;53.686;9.158;2023-02-15T01:58:32;82.47;;;10.37;;
20758;SDS011;10539;53.686;9.158;2023-02-15T02:01:00;150.43;;;13.30;;
20758;SDS011;10539;53.686;9.158;2023-02-15T02:03:42;128.73;;;12.40;;
20758;SDS011;10539;53.686;9.158;2023-02-15T02:06:21;170.70;;;12.80;;
20758;SDS011;10539;53.686;9.158;2023-02-15T02:08:48;145.77;;;13.43;;
20758;SDS011;10539;53.686;9.158;2023-02-15T02:11:14;155.40;;;13.00;;
20758;SDS011;10539;53.686;9.158;2023-02-15T02:13:40;239.60;;;15.17;;
20758;SDS011;10539;53.686;9.158;2023-02-15T02:18:41;173.93;;;14.23;;
20758;SDS011;10539;53.686;9.158;2023-02-15T02:21:25;233.37;;;15.37;;
20758;SDS011;10539;53.686;9.158;2023-02-15T02:24:30;172.27;;;13.30;;
20758;SDS011;10539;53.686;9.158;2023-02-15T02:27:23;248.20;;;15.53;;
20758;SDS011;10539;53.686;9.158;2023-02-15T02:33:28;293.60;;;16.93;;
20758;SDS011;10539;53.686;9.158;2023-02-15T02:36:25;296.63;;;16.23;;
20758;SDS011;10539;53.686;9.158;2023-02-15T02:44:56;207.60;;;17.70;;
20758;SDS011;10539;53.686;9.158;2023-02-15T02:47:47;202.70;;;16.63;;
20758;SDS011;10539;53.686;9.158;2023-02-15T02:50:26;144.87;;;15.33;;
20758;SDS011;10539;53.686;9.158;2023-02-15T02:52:54;129.27;;;15.30;;
20758;SDS011;10539;53.686;9.158;2023-02-15T03:00:37;179.77;;;18.23;;
20758;SDS011;10539;53.686;9.158;2023-02-15T03:06:43;149.77;;;16.17;;
20758;SDS011;10539;53.686;9.158;2023-02-15T03:09:18;175.67;;;18.07;;
20758;SDS011;10539;53.686;9.158;2023-02-15T03:12:00;78.97;;;14.37;;
20758;SDS011;10539;53.686;9.158;2023-02-15T03:14:28;141.80;;;16.50;;
20758;SDS011;10539;53.686;9.158;2023-02-15T03:16:54;141.43;;;17.87;;
20758;SDS011;10539;53.686;9.158;2023-02-15T03:19:22;149.80;;;17.10;;
20758;SDS011;10539;53.686;9.158;2023-02-15T03:21:56;127.67;;;16.57;;
20758;SDS011;10539;53.686;9.158;2023-02-15T03:27:19;82.73;;;12.63;;
20758;SDS011;10539;53.686;9.158;2023-02-15T03:29:50;106.73;;;15.40;;
20758;SDS011;10539;53.686;9.158;2023-02-15T03:32:20;135.60;;;17.00;;
20758;SDS011;10539;53.686;9.158;2023-02-15T03:34:48;126.80;;;16.07;;
20758;SDS011;10539;53.686;9.158;2023-02-15T03:40:02;86.07;;;15.10;;
20758;SDS011;10539;53.686;9.158;2023-02-15T03:43:00;100.10;;;17.20;;
20758;SDS011;10539;53.686;9.158;2023-02-15T03:45:32;121.23;;;17.13;;
20758;SDS011;10539;53.686;9.158;2023-02-15T03:48:00;139.83;;;17.90;;
20758;SDS011;10539;53.686;9.158;2023-02-15T03:50:29;93.30;;;15.23;;
20758;SDS011;10539;53.686;9.158;2023-02-15T03:53:16;68.90;;;14.03;;
20758;SDS011;10539;53.686;9.158;2023-02-15T03:55:46;70.03;;;13.53;;
20758;SDS011;10539;53.686;9.158;2023-02-15T03:58:12;95.73;;;15.13;;
20758;SDS011;10539;53.686;9.158;2023-02-15T04:01:00;97.07;;;14.87;;
20758;SDS011;10539;53.686;9.158;2023-02-15T04:04:35;81.83;;;13.43;;
20758;SDS011;10539;53.686;9.158;2023-02-15T04:06:45;88.37;;;14.33;;
20758;SDS011;10539;53.686;9.158;2023-02-15T04:09:11;80.00;;;14.70;;
20758;SDS011;10539;53.686;9.158;2023-02-15T04:11:57;86.80;;;14.47;;
20758;SDS011;10539;53.686;9.158;2023-02-15T04:14:23;63.37;;;14.10;;
20758;SDS011;10539;53.686;9.158;2023-02-15T04:17:07;106.27;;;16.37;;
20758;SDS011;10539;53.686;9.158;2023-02-15T04:19:34;106.27;;;15.53;;
20758;SDS011;10539;53.686;9.158;2023-02-15T04:22:18;64.73;;;13.03;;
20758;SDS011;10539;53.686;9.158;2023-02-15T04:25:02;94.37;;;15.10;;
20758;SDS011;10539;53.686;9.158;2023-02-15T04:27:35;137.87;;;15.67;;
20758;SDS011;10539;53.686;9.158;2023-02-15T04:30:02;92.53;;;13.93;;
20758;SDS011;10539;53.686;9.158;2023-02-15T04:32:28;81.47;;;14.80;;
20758;SDS011;10539;53.686;9.158;2023-02-15T04:34:54;98.77;;;14.63;;
20758;SDS011;10539;53.686;9.158;2023-02-15T04:37:20;100.47;;;15.30;;
20758;SDS011;10539;53.686;9.158;2023-02-15T04:39:46;122.00;;;15.83;;
20758;SDS011;10539;53.686;9.158;2023-02-15T04:42:11;119.23;;;15.07;;
20758;SDS011;10539;53.686;9.158;2023-02-15T04:44:37;96.87;;;15.40;;
20758;SDS011;10539;53.686;9.158;2023-02-15T04:47:03;128.40;;;15.13;;
20758;SDS011;10539;53.686;9.158;2023-02-15T04:49:28;120.90;;;16.57;;
20758;SDS011;10539;53.686;9.158;2023-02-15T04:51:54;167.57;;;17.20;;
20758;SDS011;10539;53.686;9.158;2023-02-15T04:54:20;157.90;;;17.80;;
20758;SDS011;10539;53.686;9.158;2023-02-15T04:56:46;139.20;;;17.10;;
20758;SDS011;10539;53.686;9.158;2023-02-15T04:59:12;146.77;;;16.73;;
20758;SDS011;10539;53.686;9.158;2023-02-15T05:01:38;139.53;;;17.43;;
20758;SDS011;10539;53.686;9.158;2023-02-15T05:04:04;88.77;;;14.70;;
20758;SDS011;10539;53.686;9.158;2023-02-15T05:06:29;73.57;;;14.27;;
20758;SDS011;10539;53.686;9.158;2023-02-15T05:08:55;147.23;;;16.17;;
20758;SDS011;10539;53.686;9.158;2023-02-15T05:11:23;122.33;;;15.67;;
20758;SDS011;10539;53.686;9.158;2023-02-15T05:13:50;116.27;;;16.30;;
20758;SDS011;10539;53.686;9.158;2023-02-15T05:16:15;80.70;;;13.63;;
20758;SDS011;10539;53.686;9.158;2023-02-15T05:18:41;132.20;;;15.90;;
20758;SDS011;10539;53.686;9.158;2023-02-15T05:21:06;114.33;;;15.53;;
20758;SDS011;10539;53.686;9.158;2023-02-15T05:23:32;94.87;;;14.07;;
20758;SDS011;10539;53.686;9.158;2023-02-15T05:25:58;124.03;;;16.33;;
20758;SDS011;10539;53.686;9.158;2023-02-15T05:28:42;169.40;;;16.37;;
20758;SDS011;10539;53.686;9.158;2023-02-15T05:33:39;154.33;;;15.50;;
20758;SDS011;10539;53.686;9.158;2023-02-15T05:36:05;152.40;;;15.80;;
20758;SDS011;10539;53.686;9.158;2023-02-15T05:38:32;109.47;;;14.93;;
20758;SDS011;10539;53.686;9.158;2023-02-15T05:40:58;126.20;;;15.90;;
20758;SDS011;10539;53.686;9.158;2023-02-15T05:43:24;141.93;;;15.17;;
20758;SDS011;10539;53.686;9.158;2023-02-15T05:45:51;130.37;;;16.80;;
20758;SDS011;10539;53.686;9.158;2023-02-15T05:48:18;107.23;;;14.87;;
20758;SDS011;10539;53.686;9.158;2023-02-15T05:50:45;146.60;;;16.47;;
20758;SDS011;10539;53.686;9.158;2023-02-15T05:53:11;115.53;;;15.83;;
20758;SDS011;10539;53.686;9.158;2023-02-15T05:55:38;84.57;;;14.43;;
20758;SDS011;10539;53.686;9.158;2023-02-15T05:58:04;120.33;;;16.37;;
20758;SDS011;10539;53.686;9.158;2023-02-15T06:00:30;114.77;;;14.53;;
20758;SDS011;10539;53.686;9.158;2023-02-15T06:02:56;142.27;;;16.30;;
20758;SDS011;10539;53.686;9.158;2023-02-15T06:05:22;128.57;;;15.97;;
20758;SDS011;10539;53.686;9.158;2023-02-15T06:07:47;171.47;;;17.67;;
20758;SDS011;10539;53.686;9.158;2023-02-15T06:10:13;161.90;;;17.37;;
20758;SDS011;10539;53.686;9.158;2023-02-15T06:12:39;177.73;;;17.80;;
20758;SDS011;10539;53.686;9.158;2023-02-15T06:15:05;205.53;;;19.77;;
20758;SDS011;10539;53.686;9.158;2023-02-15T06:17:31;158.97;;;15.43;;
20758;SDS011;10539;53.686;9.158;2023-02-15T06:19:56;254.20;;;19.33;;
20758;SDS011;10539;53.686;9.158;2023-02-15T06:22:22;196.13;;;18.00;;
20758;SDS011;10539;53.686;9.158;2023-02-15T06:24:48;195.47;;;17.40;;
20758;SDS011;10539;53.686;9.158;2023-02-15T06:27:14;166.00;;;16.40;;
20758;SDS011;10539;53.686;9.158;2023-02-15T06:29:40;138.23;;;16.07;;
20758;SDS011;10539;53.686;9.158;2023-02-15T06:32:06;184.33;;;18.57;;
20758;SDS011;10539;53.686;9.158;2023-02-15T06:34:32;171.80;;;16.60;;
20758;SDS011;10539;53.686;9.158;2023-02-15T06:36:57;265.30;;;20.93;;
20758;SDS011;10539;53.686;9.158;2023-02-15T06:39:23;177.53;;;16.97;;
20758;SDS011;10539;53.686;9.158;2023-02-15T06:41:49;182.87;;;17.07;;
20758;SDS011;10539;53.686;9.158;2023-02-15T06:44:15;173.67;;;17.23;;
20758;SDS011;10539;53.686;9.158;2023-02-15T06:46:40;187.00;;;17.17;;
20758;SDS011;10539;53.686;9.158;2023-02-15T06:49:07;105.17;;;14.03;;
20758;SDS011;10539;53.686;9.158;2023-02-15T06:51:33;120.67;;;14.60;;
20758;SDS011;10539;53.686;9.158;2023-02-15T06:53:59;157.67;;;16.17;;
20758;SDS011;10539;53.686;9.158;2023-02-15T06:56:25;114.70;;;14.37;;
20758;SDS011;10539;53.686;9.158;2023-02-15T06:58:51;118.67;;;15.63;;
20758;SDS011;10539;53.686;9.158;2023-02-15T07:01:17;126.17;;;14.67;;
20758;SDS011;10539;53.686;9.158;2023-02-15T07:03:44;181.13;;;19.97;;
20758;SDS011;10539;53.686;9.158;2023-02-15T07:06:09;144.47;;;15.90;;
20758;SDS011;10539;53.686;9.158;2023-02-15T07:08:36;76.20;;;14.60;;
20758;SDS011;10539;53.686;9.158;2023-02-15T07:11:04;110.83;;;17.23;;
20758;SDS011;10539;53.686;9.158;2023-02-15T07:13:49;129.97;;;15.43;;
20758;SDS011;10539;53.686;9.158;2023-02-15T07:16:15;116.57;;;14.33;;
20758;SDS011;10539;53.686;9.158;2023-02-15T07:18:41;211.40;;;19.50;;
20758;SDS011;10539;53.686;9.158;2023-02-15T07:21:07;149.80;;;17.80;;
20758;SDS011;10539;53.686;9.158;2023-02-15T07:23:36;97.90;;;16.30;;
20758;SDS011;10539;53.686;9.158;2023-02-15T07:26:03;118.20;;;16.90;;
20758;SDS011;10539;53.686;9.158;2023-02-15T07:28:30;213.37;;;18.73;;
20758;SDS011;10539;53.686;9.158;2023-02-15T07:30:57;133.63;;;15.33;;
20758;SDS011;10539;53.686;9.158;2023-02-15T07:33:23;133.03;;;16.97;;
20758;SDS011;10539;53.686;9.158;2023-02-15T07:35:49;94.50;;;14.70;;
20758;SDS011;10539;53.686;9.158;2023-02-15T07:38:16;151.87;;;17.97;;
20758;SDS011;10539;53.686;9.158;2023-02-15T07:40:42;158.93;;;17.87;;
20758;SDS011;10539;53.686;9.158;2023-02-15T07:43:09;105.90;;;15.63;;
20758;SDS011;10539;53.686;9.158;2023-02-15T07:45:34;179.83;;;17.57;;
20758;SDS011;10539;53.686;9.158;2023-02-15T07:48:01;174.67;;;18.17;;
20758;SDS011;10539;53.686;9.158;2023-02-15T07:50:27;142.43;;;13.93;;
20758;SDS011;10539;53.686;9.158;2023-02-15T07:52:53;107.80;;;13.33;;
20758;SDS011;10539;53.686;9.158;2023-02-15T07:55:19;174.60;;;15.37;;
20758;SDS011;10539;53.686;9.158;2023-02-15T07:57:45;132.17;;;15.93;;
20758;SDS011;10539;53.686;9.158;2023-02-15T08:00:12;101.93;;;14.73;;
20758;SDS011;10539;53.686;9.158;2023-02-15T08:02:39;119.87;;;14.53;;
20758;SDS011;10539;53.686;9.158;2023-02-15T08:05:05;124.70;;;15.37;;
20758;SDS011;10539;53.686;9.158;2023-02-15T08:07:31;152.33;;;15.80;;
20758;SDS011;10539;53.686;9.158;2023-02-15T08:09:57;161.43;;;15.47;;
20758;SDS011;10539;53.686;9.158;2023-02-15T08:12:25;101.77;;;14.57;;
20758;SDS011;10539;53.686;9.158;2023-02-15T08:14:52;110.77;;;14.37;;
20758;SDS011;10539;53.686;9.158;2023-02-15T08:17:17;104.00;;;15.90;;
20758;SDS011;10539;53.686;9.158;2023-02-15T08:19:43;98.97;;;15.53;;
20758;SDS011;10539;53.686;9.158;2023-02-15T08:22:10;96.13;;;13.17;;
20758;SDS011;10539;53.686;9.158;2023-02-15T08:24:39;90.63;;;15.07;;
20758;SDS011;10539;53.686;9.158;2023-02-15T08:27:07;109.43;;;15.10;;
20758;SDS011;10539;53.686;9.158;2023-02-15T08:29:35;97.17;;;15.77;;
20758;SDS011;10539;53.686;9.158;2023-02-15T08:32:07;110.53;;;15.17;;
20758;SDS011;10539;53.686;9.158;2023-02-15T08:34:35;104.77;;;15.53;;
20758;SDS011;10539;53.686;9.158;2023-02-15T08:37:04;150.67;;;17.47;;
20758;SDS011;10539;53.686;9.158;2023-02-15T08:39:31;92.17;;;16.47;;
20758;SDS011;10539;53.686;9.158;2023-02-15T08:41:56;116.43;;;16.33;;
20758;SDS011;10539;53.686;9.158;2023-02-15T08:44:22;154.90;;;16.80;;
20758;SDS011;10539;53.686;9.158;2023-02-15T08:46:48;145.30;;;17.50;;
20758;SDS011;10539;53.686;9.158;2023-02-15T08:49:15;128.17;;;15.90;;
20758;SDS011;10539;53.686;9.158;2023-02-15T08:51:43;155.40;;;17.53;;
20758;SDS011;10539;53.686;9.158;2023-02-15T08:54:10;277.60;;;22.03;;
20758;SDS011;10539;53.686;9.158;2023-02-15T08:56:39;216.67;;;20.60;;
20758;SDS011;10539;53.686;9.158;2023-02-15T08:59:07;156.53;;;18.97;;
20758;SDS011;10539;53.686;9.158;2023-02-15T09:01:37;169.47;;;19.90;;
20758;SDS011;10539;53.686;9.158;2023-02-15T09:04:06;102.83;;;17.43;;
20758;SDS011;10539;53.686;9.158;2023-02-15T09:06:34;166.93;;;19.80;;
20758;SDS011;10539;53.686;9.158;2023-02-15T09:09:00;136.93;;;16.70;;
20758;SDS011;10539;53.686;9.158;2023-02-15T09:11:27;133.07;;;17.83;;
20758;SDS011;10539;53.686;9.158;2023-02-15T09:13:55;158.87;;;19.20;;
20758;SDS011;10539;53.686;9.158;2023-02-15T09:16:27;244.80;;;20.47;;
20758;SDS011;10539;53.686;9.158;2023-02-15T09:18:55;248.03;;;22.43;;
20758;SDS011;10539;53.686;9.158;2023-02-15T09:21:23;214.93;;;21.90;;
20758;SDS011;10539;53.686;9.158;2023-02-15T09:23:51;216.90;;;22.03;;
20758;SDS011;10539;53.686;9.158;2023-02-15T09:26:21;272.07;;;24.17;;
20758;SDS011;10539;53.686;9.158;2023-02-15T09:28:51;160.47;;;20.53;;
20758;SDS011;10539;53.686;9.158;2023-02-15T09:31:21;193.67;;;20.50;;
20758;SDS011;10539;53.686;9.158;2023-02-15T09:33:52;300.67;;;23.77;;
20758;SDS011;10539;53.686;9.158;2023-02-15T09:36:19;239.83;;;22.53;;
20758;SDS011;10539;53.686;9.158;2023-02-15T09:38:47;260.10;;;22.73;;
20758;SDS011;10539;53.686;9.158;2023-02-15T10:00:48;284.90;;;25.17;;
20758;SDS011;10539;53.686;9.158;2023-02-15T10:03:52;257.47;;;23.33;;
20758;SDS011;10539;53.686;9.158;2023-02-15T10:09:22;249.87;;;22.00;;
20758;SDS011;10539;53.686;9.158;2023-02-15T10:20:55;239.57;;;23.83;;
20758;SDS011;10539;53.686;9.158;2023-02-15T10:26:45;199.03;;;24.00;;
20758;SDS011;10539;53.686;9.158;2023-02-15T10:34:47;244.90;;;24.80;;
20758;SDS011;10539;53.686;9.158;2023-02-15T10:43:05;203.40;;;24.13;;
20758;SDS011;10539;53.686;9.158;2023-02-15T10:46:18;224.97;;;26.67;;
20758;SDS011;10539;53.686;9.158;2023-02-15T10:51:36;328.57;;;30.93;;
20758;SDS011;10539;53.686;9.158;2023-02-15T10:56:48;193.97;;;26.57;;
20758;SDS011;10539;53.686;9.158;2023-02-15T11:08:02;179.93;;;27.23;;
20758;SDS011;10539;53.686;9.158;2023-02-15T11:10:35;154.93;;;26.37;;
20758;SDS011;10539;53.686;9.158;2023-02-15T11:13:09;133.33;;;27.80;;
20758;SDS011;10539;53.686;9.158;2023-02-15T11:15:43;192.17;;;28.47;;
20758;SDS011;10539;53.686;9.158;2023-02-15T11:18:34;165.83;;;28.73;;
20758;SDS011;10539;53.686;9.158;2023-02-15T11:21:26;261.30;;;31.80;;
20758;SDS011;10539;53.686;9.158;2023-02-15T11:24:07;197.00;;;29.80;;
20758;SDS011;10539;53.686;9.158;2023-02-15T11:26:56;308.53;;;31.43;;
20758;SDS011;10539;53.686;9.158;2023-02-15T11:32:32;340.73;;;32.87;;
20758;SDS011;10539;53.686;9.158;2023-02-15T11:37:46;200.30;;;30.30;;
20758;SDS011;10539;53.686;9.158;2023-02-15T11:43:21;265.90;;;33.80;;
20758;SDS011;10539;53.686;9.158;2023-02-15T11:45:48;210.03;;;33.23;;
20758;SDS011;10539;53.686;9.158;2023-02-15T11:48:14;284.37;;;35.13;;
20758;SDS011;10539;53.686;9.158;2023-02-15T11:50:41;179.03;;;33.13;;
20758;SDS011;10539;53.686;9.158;2023-02-15T11:53:12;400.23;;;36.43;;
20758;SDS011;10539;53.686;9.158;2023-02-15T11:55:43;306.40;;;36.40;;
20758;SDS011;10539;53.686;9.158;2023-02-15T12:00:49;277.37;;;36.20;;
20758;SDS011;10539;53.686;9.158;2023-02-15T12:03:24;186.77;;;34.83;;
20758;SDS011;10539;53.686;9.158;2023-02-15T12:06:01;229.57;;;32.70;;
20758;SDS011;10539;53.686;9.158;2023-02-15T12:08:37;344.17;;;35.87;;
20758;SDS011;10539;53.686;9.158;2023-02-15T12:11:09;222.93;;;34.60;;
20758;SDS011;10539;53.686;9.158;2023-02-15T12:16:22;251.73;;;36.47;;
20758;SDS011;10539;53.686;9.158;2023-02-15T12:18:49;388.23;;;39.90;;
20758;SDS011;10539;53.686;9.158;2023-02-15T12:21:28;149.60;;;33.93;;
20758;SDS011;10539;53.686;9.158;2023-02-15T12:24:17;235.87;;;38.03;;
20758;SDS011;10539;53.686;9.158;2023-02-15T12:26:59;261.93;;;41.40;;
20758;SDS011;10539;53.686;9.158;2023-02-15T12:29:35;163.80;;;35.10;;
20758;SDS011;10539;53.686;9.158;2023-02-15T12:32:08;210.87;;;37.20;;
20758;SDS011;10539;53.686;9.158;2023-02-15T12:34:41;304.33;;;42.33;;
20758;SDS011;10539;53.686;9.158;2023-02-15T12:37:17;211.73;;;40.27;;
20758;SDS011;10539;53.686;9.158;2023-02-15T12:39:51;239.37;;;40.67;;
20758;SDS011;10539;53.686;9.158;2023-02-15T12:42:19;234.07;;;40.50;;
20758;SDS011;10539;53.686;9.158;2023-02-15T12:44:53;155.77;;;37.90;;
20758;SDS011;10539;53.686;9.158;2023-02-15T12:47:27;191.00;;;39.70;;
20758;SDS011;10539;53.686;9.158;2023-02-15T12:50:08;121.40;;;39.07;;
20758;SDS011;10539;53.686;9.158;2023-02-15T12:52:48;236.60;;;42.30;;
20758;SDS011;10539;53.686;9.158;2023-02-15T12:55:30;149.50;;;40.27;;
20758;SDS011;10539;53.686;9.158;2023-02-15T12:58:12;109.93;;;39.23;;
20758;SDS011;10539;53.686;9.158;2023-02-15T13:00:42;107.20;;;37.13;;
20758;SDS011;10539;53.686;9.158;2023-02-15T13:03:19;118.53;;;40.47;;
20758;SDS011;10539;53.686;9.158;2023-02-15T13:05:53;118.03;;;42.70;;
20758;SDS011;10539;53.686;9.158;2023-02-15T13:08:22;102.17;;;40.60;;
20758;SDS011;10539;53.686;9.158;2023-02-15T13:11:03;119.33;;;43.27;;
20758;SDS011;10539;53.686;9.158;2023-02-15T13:13:35;137.43;;;42.83;;
20758;SDS011;10539;53.686;9.158;2023-02-15T13:16:20;135.97;;;42.47;;
20758;SDS011;10539;53.686;9.158;2023-02-15T13:18:55;125.87;;;44.83;;
20758;SDS011;10539;53.686;9.158;2023-02-15T13:21:23;119.53;;;45.67;;
20758;SDS011;10539;53.686;9.158;2023-02-15T13:24:02;113.27;;;44.03;;
20758;SDS011;10539;53.686;9.158;2023-02-15T13:26:41;113.00;;;44.07;;
20758;SDS011;10539;53.686;9.158;2023-02-15T13:31:57;105.17;;;44.73;;
20758;SDS011;10539;53.686;9.158;2023-02-15T13:34:33;109.77;;;46.00;;
20758;SDS011;10539;53.686;9.158;2023-02-15T13:37:21;107.93;;;44.40;;
20758;SDS011;10539;53.686;9.158;2023-02-15T13:39:53;115.57;;;44.50;;
20758;SDS011;10539;53.686;9.158;2023-02-15T13:43:10;107.87;;;43.43;;
20758;SDS011;10539;53.686;9.158;2023-02-15T13:48:01;110.43;;;42.77;;
20758;SDS011;10539;53.686;9.158;2023-02-15T14:01:36;97.23;;;42.50;;
20758;SDS011;10539;53.686;9.158;2023-02-15T14:07:07;103.87;;;42.57;;
20758;SDS011;10539;53.686;9.158;2023-02-15T14:18:35;105.97;;;45.63;;
20758;SDS011;10539;53.686;9.158;2023-02-15T14:21:19;101.47;;;43.63;;
20758;SDS011;10539;53.686;9.158;2023-02-15T14:26:45;94.53;;;43.73;;
20758;SDS011;10539;53.686;9.158;2023-02-15T14:32:13;94.33;;;42.63;;
20758;SDS011;10539;53.686;9.158;2023-02-15T14:34:48;95.83;;;42.27;;
20758;SDS011;10539;53.686;9.158;2023-02-15T14:37:19;90.50;;;43.03;;
20758;SDS011;10539;53.686;9.158;2023-02-15T14:40:00;86.27;;;40.53;;
20758;SDS011;10539;53.686;9.158;2023-02-15T14:45:53;90.93;;;43.20;;
20758;SDS011;10539;53.686;9.158;2023-02-15T14:48:38;94.93;;;42.57;;
20758;SDS011;10539;53.686;9.158;2023-02-15T14:51:05;94.37;;;44.83;;
20758;SDS011;10539;53.686;9.158;2023-02-15T14:53:34;98.03;;;43.87;;
20758;SDS011;10539;53.686;9.158;2023-02-15T15:01:29;93.60;;;43.70;;
20758;SDS011;10539;53.686;9.158;2023-02-15T15:04:13;94.00;;;44.17;;
20758;SDS011;10539;53.686;9.158;2023-02-15T15:06:57;95.17;;;43.40;;
20758;SDS011;10539;53.686;9.158;2023-02-15T15:09:27;93.50;;;44.00;;
20758;SDS011;10539;53.686;9.158;2023-02-15T15:12:18;88.30;;;42.30;;
20758;SDS011;10539;53.686;9.158;2023-02-15T15:15:00;91.67;;;42.53;;
20758;SDS011;10539;53.686;9.158;2023-02-15T15:22:43;88.50;;;42.70;;
20758;SDS011;10539;53.686;9.158;2023-02-15T15:28:03;88.77;;;43.03;;
20758;SDS011;10539;53.686;9.158;2023-02-15T15:32:58;90.53;;;43.37;;
20758;SDS011;10539;53.686;9.158;2023-02-15T15:41:39;96.53;;;44.67;;
20758;SDS011;10539;53.686;9.158;2023-02-15T15:46:54;93.60;;;45.97;;
20758;SDS011;10539;53.686;9.158;2023-02-15T15:49:39;92.10;;;44.50;;
20758;SDS011;10539;53.686;9.158;2023-02-15T15:52:19;95.10;;;45.73;;
20758;SDS011;10539;53.686;9.158;2023-02-15T15:54:47;97.97;;;44.83;;
20758;SDS011;10539;53.686;9.158;2023-02-15T15:57:27;101.63;;;45.33;;
20758;SDS011;10539;53.686;9.158;2023-02-15T15:59:57;106.53;;;46.93;;
20758;SDS011;10539;53.686;9.158;2023-02-15T16:02:26;105.43;;;48.07;;
20758;SDS011;10539;53.686;9.158;2023-02-15T16:04:52;107.47;;;48.37;;
20758;SDS011;10539;53.686;9.158;2023-02-15T16:10:00;113.90;;;52.80;;
20758;SDS011;10539;53.686;9.158;2023-02-15T16:12:35;106.57;;;49.33;;
20758;SDS011;10539;53.686;9.158;2023-02-15T16:15:17;108.20;;;48.27;;
20758;SDS011;10539;53.686;9.158;2023-02-15T16:17:47;101.30;;;46.67;;
20758;SDS011;10539;53.686;9.158;2023-02-15T16:20:20;107.10;;;47.43;;
20758;SDS011;10539;53.686;9.158;2023-02-15T16:22:49;104.37;;;47.77;;
20758;SDS011;10539;53.686;9.158;2023-02-15T16:28:23;111.63;;;51.03;;
20758;SDS011;10539;53.686;9.158;2023-02-15T16:31:11;120.87;;;51.30;;
20758;SDS011;10539;53.686;9.158;2023-02-15T16:33:39;105.57;;;48.43;;
20758;SDS011;10539;53.686;9.158;2023-02-15T16:36:09;108.33;;;46.87;;
20758;SDS011;10539;53.686;9.158;2023-02-15T16:41:13;120.03;;;50.17;;
20758;SDS011;10539;53.686;9.158;2023-02-15T16:44:02;110.03;;;47.27;;
20758;SDS011;10539;53.686;9.158;2023-02-15T16:46:40;121.23;;;49.90;;
20758;SDS011;10539;53.686;9.158;2023-02-15T16:49:19;111.70;;;49.10;;
20758;SDS011;10539;53.686;9.158;2023-02-15T16:51:53;132.50;;;54.53;;
20758;SDS011;10539;53.686;9.158;2023-02-15T16:54:27;141.73;;;55.33;;
20758;SDS011;10539;53.686;9.158;2023-02-15T16:56:56;135.57;;;54.83;;
20758;SDS011;10539;53.686;9.158;2023-02-15T16:59:33;145.03;;;57.23;;
20758;SDS011;10539;53.686;9.158;2023-02-15T17:02:11;142.23;;;53.37;;
20758;SDS011;10539;53.686;9.158;2023-02-15T17:04:44;126.93;;;49.47;;
20758;SDS011;10539;53.686;9.158;2023-02-15T17:07:19;127.43;;;50.30;;
20758;SDS011;10539;53.686;9.158;2023-02-15T17:09:52;154.87;;;57.20;;
20758;SDS011;10539;53.686;9.158;2023-02-15T17:18:44;139.63;;;50.17;;
20758;SDS011;10539;53.686;9.158;2023-02-15T17:21:12;147.20;;;50.80;;
20758;SDS011;10539;53.686;9.158;2023-02-15T17:23:47;159.33;;;52.80;;
20758;SDS011;10539;53.686;9.158;2023-02-15T17:28:47;128.70;;;51.20;;
20758;SDS011;10539;53.686;9.158;2023-02-15T17:31:24;150.33;;;51.37;;
20758;SDS011;10539;53.686;9.158;2023-02-15T17:33:56;130.27;;;48.83;;
20758;SDS011;10539;53.686;9.158;2023-02-15T17:36:26;122.37;;;49.60;;
20758;SDS011;10539;53.686;9.158;2023-02-15T17:41:26;99.23;;;41.43;;